sensor_id;sensor_type;location;lat;lon;timestamp;P1;durP1;ratioP1;P2;durP2;ratioP2
9763;SDS011;4921;43.214;27.936;2023-05-15T00:01:21;4.07;;;3.77;;
9763;SDS011;4921;43.214;27.936;2023-05-15T00:03:48;4.10;;;3.80;;
9763;SDS011;4921;43.214;27.936;2023-05-15T00:06:16;5.27;;;4.00;;
9763;SDS011;4921;43.214;27.936;2023-05-15T00:08:43;4.80;;;4.40;;
9763;SDS011;4921;43.214;27.936;2023-05-15T00:11:11;4.17;;;3.80;;
9763;SDS011;4921;43.214;27.936;2023-05-15T00:13:39;7.70;;;4.30;;
9763;SDS011;4921;43.214;27.936;2023-05-15T00:16:06;4.33;;;3.90;;
9763;SDS011;4921;43.214;27.936;2023-05-15T00:18:33;4.43;;;4.03;;
9763;SDS011;4921;43.214;27.936;2023-05-15T00:21:00;5.90;;;4.07;;
9763;SDS011;4921;43.214;27.936;2023-05-15T00:23:27;6.83;;;4.30;;
9763;SDS011;4921;43.214;27.936;2023-05-15T00:25:54;4.60;;;4.30;;
9763;SDS011;4921;43.214;27.936;2023-05-15T00:28:22;5.07;;;4.10;;
9763;SDS011;4921;43.214;27.936;2023-05-15T00:30:49;6.47;;;4.80;;
9763;SDS011;4921;43.214;27.936;2023-05-15T00:33:17;6.47;;;4.53;;
9763;SDS011;4921;43.214;27.936;2023-05-15T00:35:44;7.37;;;4.60;;
9763;SDS011;4921;43.214;27.936;2023-05-15T00:38:11;4.90;;;4.57;;
9763;SDS011;4921;43.214;27.936;2023-05-15T00:40:38;5.40;;;4.57;;
9763;SDS011;4921;43.214;27.936;2023-05-15T00:43:07;5.03;;;4.53;;
9763;SDS011;4921;43.214;27.936;2023-05-15T00:45:37;5.53;;;4.93;;
9763;SDS011;4921;43.214;27.936;2023-05-15T00:48:06;6.23;;;4.17;;
9763;SDS011;4921;43.214;27.936;2023-05-15T00:50:35;5.40;;;4.33;;
9763;SDS011;4921;43.214;27.936;2023-05-15T00:53:02;4.80;;;4.40;;
9763;SDS011;4921;43.214;27.936;2023-05-15T00:55:30;7.73;;;4.73;;
9763;SDS011;4921;43.214;27.936;2023-05-15T00:57:58;4.40;;;4.00;;
9763;SDS011;4921;43.214;27.936;2023-05-15T01:00:26;4.83;;;4.43;;
9763;SDS011;4921;43.214;27.936;2023-05-15T01:02:55;5.17;;;4.73;;
9763;SDS011;4921;43.214;27.936;2023-05-15T01:05:22;6.93;;;4.20;;
9763;SDS011;4921;43.214;27.936;2023-05-15T01:07:51;4.67;;;4.27;;
9763;SDS011;4921;43.214;27.936;2023-05-15T01:10:26;5.00;;;4.60;;
9763;SDS011;4921;43.214;27.936;2023-05-15T01:12:53;7.53;;;4.70;;
9763;SDS011;4921;43.214;27.936;2023-05-15T01:15:22;4.53;;;4.13;;
9763;SDS011;4921;43.214;27.936;2023-05-15T01:17:49;5.40;;;4.33;;
9763;SDS011;4921;43.214;27.936;2023-05-15T01:20:18;5.00;;;4.20;;
9763;SDS011;4921;43.214;27.936;2023-05-15T01:22:50;5.17;;;4.20;;
9763;SDS011;4921;43.214;27.936;2023-05-15T01:28:12;5.97;;;4.30;;
9763;SDS011;4921;43.214;27.936;2023-05-15T01:30:40;4.13;;;3.93;;
9763;SDS011;4921;43.214;27.936;2023-05-15T01:33:11;6.13;;;4.80;;
9763;SDS011;4921;43.214;27.936;2023-05-15T01:35:44;7.17;;;4.93;;
9763;SDS011;4921;43.214;27.936;2023-05-15T01:38:18;4.50;;;4.03;;
9763;SDS011;4921;43.214;27.936;2023-05-15T01:40:50;5.23;;;4.30;;
9763;SDS011;4921;43.214;27.936;2023-05-15T01:43:26;4.77;;;4.23;;
9763;SDS011;4921;43.214;27.936;2023-05-15T01:45:57;5.97;;;4.20;;
9763;SDS011;4921;43.214;27.936;2023-05-15T01:48:24;4.67;;;4.20;;
9763;SDS011;4921;43.214;27.936;2023-05-15T01:50:53;6.73;;;4.60;;
9763;SDS011;4921;43.214;27.936;2023-05-15T01:53:24;4.87;;;4.43;;
9763;SDS011;4921;43.214;27.936;2023-05-15T01:55:52;4.70;;;4.30;;
9763;SDS011;4921;43.214;27.936;2023-05-15T01:58:20;4.47;;;4.07;;
9763;SDS011;4921;43.214;27.936;2023-05-15T02:00:50;5.30;;;4.80;;
9763;SDS011;4921;43.214;27.936;2023-05-15T02:03:18;4.60;;;3.93;;
9763;SDS011;4921;43.214;27.936;2023-05-15T02:05:45;4.60;;;4.03;;
9763;SDS011;4921;43.214;27.936;2023-05-15T02:08:13;4.97;;;4.30;;
9763;SDS011;4921;43.214;27.936;2023-05-15T02:10:40;5.17;;;3.93;;
9763;SDS011;4921;43.214;27.936;2023-05-15T02:13:08;7.27;;;4.50;;
9763;SDS011;4921;43.214;27.936;2023-05-15T02:15:37;5.27;;;4.20;;
9763;SDS011;4921;43.214;27.936;2023-05-15T02:18:05;4.10;;;3.70;;
9763;SDS011;4921;43.214;27.936;2023-05-15T02:20:32;4.63;;;3.40;;
9763;SDS011;4921;43.214;27.936;2023-05-15T02:22:59;4.13;;;3.80;;
9763;SDS011;4921;43.214;27.936;2023-05-15T02:25:28;3.93;;;3.37;;
9763;SDS011;4921;43.214;27.936;2023-05-15T02:28:03;3.90;;;3.47;;
9763;SDS011;4921;43.214;27.936;2023-05-15T02:30:37;4.63;;;3.43;;
9763;SDS011;4921;43.214;27.936;2023-05-15T02:33:13;3.73;;;3.43;;
9763;SDS011;4921;43.214;27.936;2023-05-15T02:35:47;3.60;;;3.33;;
9763;SDS011;4921;43.214;27.936;2023-05-15T02:38:19;5.77;;;3.20;;
9763;SDS011;4921;43.214;27.936;2023-05-15T02:40:49;3.70;;;3.40;;
9763;SDS011;4921;43.214;27.936;2023-05-15T02:43:18;6.40;;;3.53;;
9763;SDS011;4921;43.214;27.936;2023-05-15T02:45:45;3.63;;;3.10;;
9763;SDS011;4921;43.214;27.936;2023-05-15T02:48:14;6.40;;;3.00;;
9763;SDS011;4921;43.214;27.936;2023-05-15T02:50:41;4.20;;;3.83;;
9763;SDS011;4921;43.214;27.936;2023-05-15T02:53:09;4.43;;;3.77;;
9763;SDS011;4921;43.214;27.936;2023-05-15T02:55:38;5.50;;;3.30;;
9763;SDS011;4921;43.214;27.936;2023-05-15T02:58:05;9.63;;;3.57;;
9763;SDS011;4921;43.214;27.936;2023-05-15T03:00:32;4.00;;;3.53;;
9763;SDS011;4921;43.214;27.936;2023-05-15T03:02:59;3.80;;;3.20;;
9763;SDS011;4921;43.214;27.936;2023-05-15T03:05:27;5.17;;;3.67;;
9763;SDS011;4921;43.214;27.936;2023-05-15T03:07:55;4.07;;;3.60;;
9763;SDS011;4921;43.214;27.936;2023-05-15T03:10:22;4.00;;;3.60;;
9763;SDS011;4921;43.214;27.936;2023-05-15T03:12:49;3.87;;;3.33;;
9763;SDS011;4921;43.214;27.936;2023-05-15T03:15:16;4.40;;;4.00;;
9763;SDS011;4921;43.214;27.936;2023-05-15T03:17:44;5.37;;;3.67;;
9763;SDS011;4921;43.214;27.936;2023-05-15T03:20:11;3.47;;;3.20;;
9763;SDS011;4921;43.214;27.936;2023-05-15T03:22:40;3.77;;;3.20;;
9763;SDS011;4921;43.214;27.936;2023-05-15T03:25:08;4.47;;;3.33;;
9763;SDS011;4921;43.214;27.936;2023-05-15T03:27:36;4.30;;;3.30;;
9763;SDS011;4921;43.214;27.936;2023-05-15T03:30:03;3.70;;;2.87;;
9763;SDS011;4921;43.214;27.936;2023-05-15T03:32:31;3.50;;;3.20;;
9763;SDS011;4921;43.214;27.936;2023-05-15T03:34:57;3.70;;;3.40;;
9763;SDS011;4921;43.214;27.936;2023-05-15T03:37:25;3.30;;;3.00;;
9763;SDS011;4921;43.214;27.936;2023-05-15T03:39:53;3.67;;;3.23;;
9763;SDS011;4921;43.214;27.936;2023-05-15T03:42:20;3.23;;;2.97;;
9763;SDS011;4921;43.214;27.936;2023-05-15T03:44:49;4.10;;;3.70;;
9763;SDS011;4921;43.214;27.936;2023-05-15T03:47:16;5.10;;;3.50;;
9763;SDS011;4921;43.214;27.936;2023-05-15T03:49:44;5.57;;;3.57;;
9763;SDS011;4921;43.214;27.936;2023-05-15T03:52:11;4.07;;;3.63;;
9763;SDS011;4921;43.214;27.936;2023-05-15T03:54:38;6.37;;;3.33;;
9763;SDS011;4921;43.214;27.936;2023-05-15T03:57:07;4.60;;;3.40;;
9763;SDS011;4921;43.214;27.936;2023-05-15T03:59:34;4.63;;;3.67;;
9763;SDS011;4921;43.214;27.936;2023-05-15T04:02:00;3.07;;;2.87;;
9763;SDS011;4921;43.214;27.936;2023-05-15T04:04:27;9.50;;;3.27;;
9763;SDS011;4921;43.214;27.936;2023-05-15T04:06:54;5.93;;;3.43;;
9763;SDS011;4921;43.214;27.936;2023-05-15T04:09:21;3.33;;;3.00;;
9763;SDS011;4921;43.214;27.936;2023-05-15T04:11:48;3.70;;;3.17;;
9763;SDS011;4921;43.214;27.936;2023-05-15T04:14:16;3.53;;;3.00;;
9763;SDS011;4921;43.214;27.936;2023-05-15T04:16:43;5.80;;;3.00;;
9763;SDS011;4921;43.214;27.936;2023-05-15T04:19:10;7.40;;;3.20;;
9763;SDS011;4921;43.214;27.936;2023-05-15T04:21:37;4.03;;;3.20;;
9763;SDS011;4921;43.214;27.936;2023-05-15T04:24:05;3.90;;;2.90;;
9763;SDS011;4921;43.214;27.936;2023-05-15T04:26:32;4.13;;;3.13;;
9763;SDS011;4921;43.214;27.936;2023-05-15T04:28:59;3.90;;;3.10;;
9763;SDS011;4921;43.214;27.936;2023-05-15T04:31:28;3.00;;;2.80;;
9763;SDS011;4921;43.214;27.936;2023-05-15T04:33:55;5.87;;;3.47;;
9763;SDS011;4921;43.214;27.936;2023-05-15T04:36:22;5.17;;;3.40;;
9763;SDS011;4921;43.214;27.936;2023-05-15T04:38:49;3.73;;;3.20;;
9763;SDS011;4921;43.214;27.936;2023-05-15T04:41:16;6.63;;;3.40;;
9763;SDS011;4921;43.214;27.936;2023-05-15T04:43:43;3.30;;;3.00;;
9763;SDS011;4921;43.214;27.936;2023-05-15T04:46:10;3.17;;;2.87;;
9763;SDS011;4921;43.214;27.936;2023-05-15T04:48:38;3.50;;;3.20;;
9763;SDS011;4921;43.214;27.936;2023-05-15T04:51:05;5.43;;;3.33;;
9763;SDS011;4921;43.214;27.936;2023-05-15T04:53:32;3.67;;;3.10;;
9763;SDS011;4921;43.214;27.936;2023-05-15T04:55:58;3.57;;;3.10;;
9763;SDS011;4921;43.214;27.936;2023-05-15T04:58:25;4.47;;;2.80;;
9763;SDS011;4921;43.214;27.936;2023-05-15T05:00:52;4.73;;;3.20;;
9763;SDS011;4921;43.214;27.936;2023-05-15T05:03:19;3.40;;;3.10;;
9763;SDS011;4921;43.214;27.936;2023-05-15T05:05:48;5.47;;;3.13;;
9763;SDS011;4921;43.214;27.936;2023-05-15T05:08:15;4.93;;;3.30;;
9763;SDS011;4921;43.214;27.936;2023-05-15T05:10:42;3.90;;;3.60;;
9763;SDS011;4921;43.214;27.936;2023-05-15T05:13:08;6.03;;;4.50;;
9763;SDS011;4921;43.214;27.936;2023-05-15T05:15:35;4.20;;;3.80;;
9763;SDS011;4921;43.214;27.936;2023-05-15T05:18:02;5.07;;;3.63;;
9763;SDS011;4921;43.214;27.936;2023-05-15T05:20:30;4.33;;;3.40;;
9763;SDS011;4921;43.214;27.936;2023-05-15T05:22:58;4.73;;;3.27;;
9763;SDS011;4921;43.214;27.936;2023-05-15T05:25:25;6.50;;;3.77;;
9763;SDS011;4921;43.214;27.936;2023-05-15T05:27:52;7.83;;;3.30;;
9763;SDS011;4921;43.214;27.936;2023-05-15T05:30:19;7.60;;;3.90;;
9763;SDS011;4921;43.214;27.936;2023-05-15T05:32:46;3.20;;;2.90;;
9763;SDS011;4921;43.214;27.936;2023-05-15T05:35:13;5.50;;;3.57;;
9763;SDS011;4921;43.214;27.936;2023-05-15T05:37:40;5.67;;;4.10;;
9763;SDS011;4921;43.214;27.936;2023-05-15T05:40:09;6.20;;;3.33;;
9763;SDS011;4921;43.214;27.936;2023-05-15T05:42:36;5.53;;;3.57;;
9763;SDS011;4921;43.214;27.936;2023-05-15T05:45:04;3.90;;;3.20;;
9763;SDS011;4921;43.214;27.936;2023-05-15T05:47:31;3.00;;;2.80;;
9763;SDS011;4921;43.214;27.936;2023-05-15T05:49:58;3.13;;;2.60;;
9763;SDS011;4921;43.214;27.936;2023-05-15T05:52:25;4.17;;;3.07;;
9763;SDS011;4921;43.214;27.936;2023-05-15T05:54:53;4.10;;;2.60;;
9763;SDS011;4921;43.214;27.936;2023-05-15T05:57:21;3.47;;;2.50;;
9763;SDS011;4921;43.214;27.936;2023-05-15T05:59:48;3.03;;;2.63;;
9763;SDS011;4921;43.214;27.936;2023-05-15T06:02:15;3.13;;;2.60;;
9763;SDS011;4921;43.214;27.936;2023-05-15T06:04:42;3.20;;;2.57;;
9763;SDS011;4921;43.214;27.936;2023-05-15T06:07:10;5.83;;;2.80;;
9763;SDS011;4921;43.214;27.936;2023-05-15T06:09:37;4.83;;;2.60;;
9763;SDS011;4921;43.214;27.936;2023-05-15T06:12:04;5.10;;;3.20;;
9763;SDS011;4921;43.214;27.936;2023-05-15T06:14:34;5.63;;;3.17;;
9763;SDS011;4921;43.214;27.936;2023-05-15T06:17:01;3.10;;;2.77;;
9763;SDS011;4921;43.214;27.936;2023-05-15T06:19:28;3.70;;;3.00;;
9763;SDS011;4921;43.214;27.936;2023-05-15T06:21:55;4.13;;;2.87;;
9763;SDS011;4921;43.214;27.936;2023-05-15T06:24:22;3.60;;;3.30;;
9763;SDS011;4921;43.214;27.936;2023-05-15T06:26:49;5.00;;;3.03;;
9763;SDS011;4921;43.214;27.936;2023-05-15T06:29:16;4.27;;;2.90;;
9763;SDS011;4921;43.214;27.936;2023-05-15T06:31:45;3.60;;;3.07;;
9763;SDS011;4921;43.214;27.936;2023-05-15T06:34:12;5.53;;;3.20;;
9763;SDS011;4921;43.214;27.936;2023-05-15T06:36:39;7.07;;;3.53;;
9763;SDS011;4921;43.214;27.936;2023-05-15T06:39:06;2.73;;;2.50;;
9763;SDS011;4921;43.214;27.936;2023-05-15T06:41:35;7.67;;;3.60;;
9763;SDS011;4921;43.214;27.936;2023-05-15T06:44:01;2.73;;;2.53;;
9763;SDS011;4921;43.214;27.936;2023-05-15T06:46:28;2.93;;;2.50;;
9763;SDS011;4921;43.214;27.936;2023-05-15T06:48:57;5.90;;;2.50;;
9763;SDS011;4921;43.214;27.936;2023-05-15T06:51:24;2.50;;;2.30;;
9763;SDS011;4921;43.214;27.936;2023-05-15T06:53:51;2.93;;;2.63;;
9763;SDS011;4921;43.214;27.936;2023-05-15T06:56:18;6.00;;;3.10;;
9763;SDS011;4921;43.214;27.936;2023-05-15T06:58:45;3.13;;;2.83;;
9763;SDS011;4921;43.214;27.936;2023-05-15T07:01:12;5.93;;;2.70;;
9763;SDS011;4921;43.214;27.936;2023-05-15T07:03:39;3.40;;;2.40;;
9763;SDS011;4921;43.214;27.936;2023-05-15T07:06:08;2.67;;;2.10;;
9763;SDS011;4921;43.214;27.936;2023-05-15T07:08:35;2.37;;;2.20;;
9763;SDS011;4921;43.214;27.936;2023-05-15T07:11:02;2.80;;;2.60;;
9763;SDS011;4921;43.214;27.936;2023-05-15T07:13:30;4.10;;;2.23;;
9763;SDS011;4921;43.214;27.936;2023-05-15T07:15:56;3.17;;;2.50;;
9763;SDS011;4921;43.214;27.936;2023-05-15T07:18:24;4.77;;;2.23;;
9763;SDS011;4921;43.214;27.936;2023-05-15T07:23:51;3.03;;;2.50;;
9763;SDS011;4921;43.214;27.936;2023-05-15T07:26:17;2.70;;;2.50;;
9763;SDS011;4921;43.214;27.936;2023-05-15T07:28:45;2.80;;;2.30;;
9763;SDS011;4921;43.214;27.936;2023-05-15T07:31:12;5.83;;;2.50;;
9763;SDS011;4921;43.214;27.936;2023-05-15T07:33:38;2.57;;;2.37;;
9763;SDS011;4921;43.214;27.936;2023-05-15T07:36:05;3.60;;;2.50;;
9763;SDS011;4921;43.214;27.936;2023-05-15T07:38:34;2.77;;;2.27;;
9763;SDS011;4921;43.214;27.936;2023-05-15T07:41:01;3.40;;;3.00;;
9763;SDS011;4921;43.214;27.936;2023-05-15T07:43:28;2.63;;;2.43;;
9763;SDS011;4921;43.214;27.936;2023-05-15T07:45:54;5.13;;;2.57;;
9763;SDS011;4921;43.214;27.936;2023-05-15T07:48:22;3.00;;;2.70;;
9763;SDS011;4921;43.214;27.936;2023-05-15T07:50:49;9.00;;;3.00;;
9763;SDS011;4921;43.214;27.936;2023-05-15T07:53:16;5.03;;;2.30;;
9763;SDS011;4921;43.214;27.936;2023-05-15T07:55:45;3.00;;;2.20;;
9763;SDS011;4921;43.214;27.936;2023-05-15T07:58:12;3.73;;;2.30;;
9763;SDS011;4921;43.214;27.936;2023-05-15T08:00:39;4.80;;;2.27;;
9763;SDS011;4921;43.214;27.936;2023-05-15T08:03:06;3.80;;;2.23;;
9763;SDS011;4921;43.214;27.936;2023-05-15T08:05:32;4.57;;;2.63;;
9763;SDS011;4921;43.214;27.936;2023-05-15T08:08:00;2.50;;;2.30;;
9763;SDS011;4921;43.214;27.936;2023-05-15T08:10:27;3.93;;;2.70;;
9763;SDS011;4921;43.214;27.936;2023-05-15T08:12:55;4.00;;;2.50;;
9763;SDS011;4921;43.214;27.936;2023-05-15T08:15:22;3.20;;;2.27;;
9763;SDS011;4921;43.214;27.936;2023-05-15T08:17:49;2.83;;;2.23;;
9763;SDS011;4921;43.214;27.936;2023-05-15T08:20:16;4.30;;;2.47;;
9763;SDS011;4921;43.214;27.936;2023-05-15T08:22:43;5.30;;;2.23;;
9763;SDS011;4921;43.214;27.936;2023-05-15T08:25:10;3.10;;;2.27;;
9763;SDS011;4921;43.214;27.936;2023-05-15T08:27:37;3.17;;;2.50;;
9763;SDS011;4921;43.214;27.936;2023-05-15T08:30:06;2.37;;;2.17;;
9763;SDS011;4921;43.214;27.936;2023-05-15T08:32:34;2.57;;;2.37;;
9763;SDS011;4921;43.214;27.936;2023-05-15T08:35:00;2.93;;;2.20;;
9763;SDS011;4921;43.214;27.936;2023-05-15T08:37:27;3.37;;;2.60;;
9763;SDS011;4921;43.214;27.936;2023-05-15T08:39:55;2.97;;;2.67;;
9763;SDS011;4921;43.214;27.936;2023-05-15T08:42:23;4.27;;;2.60;;
9763;SDS011;4921;43.214;27.936;2023-05-15T08:44:58;6.83;;;2.87;;
9763;SDS011;4921;43.214;27.936;2023-05-15T08:47:26;3.47;;;2.37;;
9763;SDS011;4921;43.214;27.936;2023-05-15T08:49:55;2.83;;;2.60;;
9763;SDS011;4921;43.214;27.936;2023-05-15T08:52:25;4.07;;;2.87;;
9763;SDS011;4921;43.214;27.936;2023-05-15T08:54:53;4.00;;;2.43;;
9763;SDS011;4921;43.214;27.936;2023-05-15T08:57:20;4.57;;;2.17;;
9763;SDS011;4921;43.214;27.936;2023-05-15T08:59:48;4.33;;;2.40;;
9763;SDS011;4921;43.214;27.936;2023-05-15T09:02:18;6.00;;;2.17;;
9763;SDS011;4921;43.214;27.936;2023-05-15T09:04:46;2.37;;;2.27;;
9763;SDS011;4921;43.214;27.936;2023-05-15T09:07:13;4.43;;;2.57;;
9763;SDS011;4921;43.214;27.936;2023-05-15T09:09:41;4.13;;;2.97;;
9763;SDS011;4921;43.214;27.936;2023-05-15T09:12:10;3.97;;;2.40;;
9763;SDS011;4921;43.214;27.936;2023-05-15T09:14:40;4.03;;;2.50;;
9763;SDS011;4921;43.214;27.936;2023-05-15T09:17:08;3.73;;;2.30;;
9763;SDS011;4921;43.214;27.936;2023-05-15T09:19:36;2.83;;;2.20;;
9763;SDS011;4921;43.214;27.936;2023-05-15T09:24:50;3.33;;;2.40;;
9763;SDS011;4921;43.214;27.936;2023-05-15T09:27:18;3.30;;;2.47;;
9763;SDS011;4921;43.214;27.936;2023-05-15T09:29:45;2.70;;;2.50;;
9763;SDS011;4921;43.214;27.936;2023-05-15T09:32:16;4.90;;;2.83;;
9763;SDS011;4921;43.214;27.936;2023-05-15T09:34:43;4.40;;;2.60;;
9763;SDS011;4921;43.214;27.936;2023-05-15T09:37:11;4.07;;;3.23;;
9763;SDS011;4921;43.214;27.936;2023-05-15T09:39:55;3.57;;;2.33;;
9763;SDS011;4921;43.214;27.936;2023-05-15T09:42:33;3.80;;;2.40;;
9763;SDS011;4921;43.214;27.936;2023-05-15T09:45:01;3.40;;;2.40;;
9763;SDS011;4921;43.214;27.936;2023-05-15T09:47:28;2.60;;;1.90;;
9763;SDS011;4921;43.214;27.936;2023-05-15T09:49:55;4.13;;;2.20;;
9763;SDS011;4921;43.214;27.936;2023-05-15T09:52:22;2.30;;;2.10;;
9763;SDS011;4921;43.214;27.936;2023-05-15T09:54:49;2.70;;;1.90;;
9763;SDS011;4921;43.214;27.936;2023-05-15T09:57:20;3.30;;;2.20;;
9763;SDS011;4921;43.214;27.936;2023-05-15T09:59:48;2.30;;;2.17;;
9763;SDS011;4921;43.214;27.936;2023-05-15T10:02:25;2.23;;;2.03;;
9763;SDS011;4921;43.214;27.936;2023-05-15T10:04:56;2.53;;;2.20;;
9763;SDS011;4921;43.214;27.936;2023-05-15T10:07:28;2.53;;;1.97;;
9763;SDS011;4921;43.214;27.936;2023-05-15T10:09:56;3.13;;;2.23;;
9763;SDS011;4921;43.214;27.936;2023-05-15T10:12:24;3.10;;;2.10;;
9763;SDS011;4921;43.214;27.936;2023-05-15T10:14:54;5.50;;;2.70;;
9763;SDS011;4921;43.214;27.936;2023-05-15T10:17:22;2.37;;;2.17;;
9763;SDS011;4921;43.214;27.936;2023-05-15T10:19:50;3.47;;;2.13;;
9763;SDS011;4921;43.214;27.936;2023-05-15T10:22:18;2.47;;;2.27;;
9763;SDS011;4921;43.214;27.936;2023-05-15T10:24:50;2.37;;;2.27;;
9763;SDS011;4921;43.214;27.936;2023-05-15T10:27:20;4.27;;;2.30;;
9763;SDS011;4921;43.214;27.936;2023-05-15T10:29:50;6.63;;;2.27;;
9763;SDS011;4921;43.214;27.936;2023-05-15T10:32:18;3.87;;;2.50;;
9763;SDS011;4921;43.214;27.936;2023-05-15T10:34:46;4.57;;;2.23;;
9763;SDS011;4921;43.214;27.936;2023-05-15T10:37:15;1.97;;;1.87;;
9763;SDS011;4921;43.214;27.936;2023-05-15T10:39:43;3.97;;;2.40;;
9763;SDS011;4921;43.214;27.936;2023-05-15T10:42:11;6.37;;;2.40;;
9763;SDS011;4921;43.214;27.936;2023-05-15T10:44:38;3.37;;;2.33;;
9763;SDS011;4921;43.214;27.936;2023-05-15T10:47:07;2.50;;;2.30;;
9763;SDS011;4921;43.214;27.936;2023-05-15T10:49:34;32.63;;;20.93;;
9763;SDS011;4921;43.214;27.936;2023-05-15T10:52:02;43.20;;;23.27;;
9763;SDS011;4921;43.214;27.936;2023-05-15T10:54:29;32.40;;;17.23;;
9763;SDS011;4921;43.214;27.936;2023-05-15T10:56:56;80.27;;;36.50;;
9763;SDS011;4921;43.214;27.936;2023-05-15T10:59:29;5.17;;;3.00;;
9763;SDS011;4921;43.214;27.936;2023-05-15T11:01:56;3.97;;;3.20;;
9763;SDS011;4921;43.214;27.936;2023-05-15T11:04:52;188.53;;;78.40;;
9763;SDS011;4921;43.214;27.936;2023-05-15T11:07:21;9.50;;;5.07;;
9763;SDS011;4921;43.214;27.936;2023-05-15T11:09:49;134.33;;;60.90;;
9763;SDS011;4921;43.214;27.936;2023-05-15T11:12:16;223.07;;;97.53;;
9763;SDS011;4921;43.214;27.936;2023-05-15T11:17:42;132.67;;;58.73;;
9763;SDS011;4921;43.214;27.936;2023-05-15T11:20:31;69.83;;;35.10;;
9763;SDS011;4921;43.214;27.936;2023-05-15T11:22:59;241.20;;;121.37;;
9763;SDS011;4921;43.214;27.936;2023-05-15T11:25:28;154.13;;;71.43;;
9763;SDS011;4921;43.214;27.936;2023-05-15T11:27:56;100.90;;;55.83;;
9763;SDS011;4921;43.214;27.936;2023-05-15T11:30:33;5.37;;;4.53;;
9763;SDS011;4921;43.214;27.936;2023-05-15T11:33:03;7.80;;;2.70;;
9763;SDS011;4921;43.214;27.936;2023-05-15T11:35:33;3.00;;;2.67;;
9763;SDS011;4921;43.214;27.936;2023-05-15T11:38:02;3.60;;;3.30;;
9763;SDS011;4921;43.214;27.936;2023-05-15T11:40:30;3.97;;;3.60;;
9763;SDS011;4921;43.214;27.936;2023-05-15T11:43:02;7.67;;;2.50;;
9763;SDS011;4921;43.214;27.936;2023-05-15T11:45:32;4.17;;;2.70;;
9763;SDS011;4921;43.214;27.936;2023-05-15T11:48:00;5.63;;;2.90;;
9763;SDS011;4921;43.214;27.936;2023-05-15T11:50:30;3.43;;;2.93;;
9763;SDS011;4921;43.214;27.936;2023-05-15T11:53:00;4.43;;;3.70;;
9763;SDS011;4921;43.214;27.936;2023-05-15T11:55:29;3.47;;;3.17;;
9763;SDS011;4921;43.214;27.936;2023-05-15T11:57:57;4.10;;;3.10;;
9763;SDS011;4921;43.214;27.936;2023-05-15T12:00:24;6.30;;;3.73;;
9763;SDS011;4921;43.214;27.936;2023-05-15T12:02:51;4.60;;;3.10;;
9763;SDS011;4921;43.214;27.936;2023-05-15T12:05:18;2.90;;;2.70;;
9763;SDS011;4921;43.214;27.936;2023-05-15T12:07:46;3.07;;;2.87;;
9763;SDS011;4921;43.214;27.936;2023-05-15T12:10:14;3.23;;;3.03;;
9763;SDS011;4921;43.214;27.936;2023-05-15T12:12:42;4.43;;;3.43;;
9763;SDS011;4921;43.214;27.936;2023-05-15T12:15:10;9.10;;;6.93;;
9763;SDS011;4921;43.214;27.936;2023-05-15T12:17:38;6.87;;;3.80;;
9763;SDS011;4921;43.214;27.936;2023-05-15T12:20:06;5.50;;;3.20;;
9763;SDS011;4921;43.214;27.936;2023-05-15T12:22:36;4.20;;;2.90;;
9763;SDS011;4921;43.214;27.936;2023-05-15T12:25:05;3.47;;;3.10;;
9763;SDS011;4921;43.214;27.936;2023-05-15T12:27:33;3.30;;;3.00;;
9763;SDS011;4921;43.214;27.936;2023-05-15T12:30:01;3.27;;;2.97;;
9763;SDS011;4921;43.214;27.936;2023-05-15T12:32:30;8.47;;;3.60;;
9763;SDS011;4921;43.214;27.936;2023-05-15T12:34:58;5.27;;;2.90;;
9763;SDS011;4921;43.214;27.936;2023-05-15T12:37:25;6.10;;;3.37;;
9763;SDS011;4921;43.214;27.936;2023-05-15T12:39:54;4.47;;;3.07;;
9763;SDS011;4921;43.214;27.936;2023-05-15T12:42:23;5.27;;;3.27;;
9763;SDS011;4921;43.214;27.936;2023-05-15T12:44:50;8.83;;;3.10;;
9763;SDS011;4921;43.214;27.936;2023-05-15T12:47:21;3.30;;;3.10;;
9763;SDS011;4921;43.214;27.936;2023-05-15T12:49:48;4.33;;;2.90;;
9763;SDS011;4921;43.214;27.936;2023-05-15T12:52:15;14.67;;;3.60;;
9763;SDS011;4921;43.214;27.936;2023-05-15T12:54:42;4.13;;;3.13;;
9763;SDS011;4921;43.214;27.936;2023-05-15T12:57:11;3.47;;;3.00;;
9763;SDS011;4921;43.214;27.936;2023-05-15T12:59:40;4.73;;;3.13;;
9763;SDS011;4921;43.214;27.936;2023-05-15T13:02:10;3.30;;;3.10;;
9763;SDS011;4921;43.214;27.936;2023-05-15T13:04:38;3.97;;;3.00;;
9763;SDS011;4921;43.214;27.936;2023-05-15T13:07:05;4.20;;;3.13;;
9763;SDS011;4921;43.214;27.936;2023-05-15T13:09:33;5.70;;;3.90;;
9763;SDS011;4921;43.214;27.936;2023-05-15T13:12:00;5.13;;;3.63;;
9763;SDS011;4921;43.214;27.936;2023-05-15T13:14:31;5.80;;;3.20;;
9763;SDS011;4921;43.214;27.936;2023-05-15T13:17:00;3.70;;;3.17;;
9763;SDS011;4921;43.214;27.936;2023-05-15T13:19:28;3.57;;;3.20;;
9763;SDS011;4921;43.214;27.936;2023-05-15T13:21:56;5.63;;;3.67;;
9763;SDS011;4921;43.214;27.936;2023-05-15T13:24:23;6.77;;;3.33;;
9763;SDS011;4921;43.214;27.936;2023-05-15T13:26:50;3.70;;;3.40;;
9763;SDS011;4921;43.214;27.936;2023-05-15T13:29:17;3.77;;;3.30;;
9763;SDS011;4921;43.214;27.936;2023-05-15T13:31:44;10.80;;;3.90;;
9763;SDS011;4921;43.214;27.936;2023-05-15T13:34:13;4.87;;;3.03;;
9763;SDS011;4921;43.214;27.936;2023-05-15T13:36:40;4.03;;;3.33;;
9763;SDS011;4921;43.214;27.936;2023-05-15T13:39:08;4.03;;;2.90;;
9763;SDS011;4921;43.214;27.936;2023-05-15T13:41:35;3.63;;;3.33;;
9763;SDS011;4921;43.214;27.936;2023-05-15T13:44:03;4.90;;;3.50;;
9763;SDS011;4921;43.214;27.936;2023-05-15T13:46:30;6.23;;;3.50;;
9763;SDS011;4921;43.214;27.936;2023-05-15T13:48:57;3.20;;;2.90;;
9763;SDS011;4921;43.214;27.936;2023-05-15T13:51:25;7.87;;;3.20;;
9763;SDS011;4921;43.214;27.936;2023-05-15T13:53:52;3.83;;;3.20;;
9763;SDS011;4921;43.214;27.936;2023-05-15T13:56:19;3.70;;;3.33;;
9763;SDS011;4921;43.214;27.936;2023-05-15T13:58:46;4.73;;;3.20;;
9763;SDS011;4921;43.214;27.936;2023-05-15T14:01:13;7.77;;;3.87;;
9763;SDS011;4921;43.214;27.936;2023-05-15T14:03:40;7.60;;;5.17;;
9763;SDS011;4921;43.214;27.936;2023-05-15T14:06:10;3.57;;;3.10;;
9763;SDS011;4921;43.214;27.936;2023-05-15T14:08:38;3.37;;;3.07;;
9763;SDS011;4921;43.214;27.936;2023-05-15T14:11:05;3.80;;;3.33;;
9763;SDS011;4921;43.214;27.936;2023-05-15T14:13:32;4.87;;;3.10;;
9763;SDS011;4921;43.214;27.936;2023-05-15T14:15:59;3.83;;;3.27;;
9763;SDS011;4921;43.214;27.936;2023-05-15T14:18:26;10.33;;;5.77;;
9763;SDS011;4921;43.214;27.936;2023-05-15T14:20:53;5.20;;;3.47;;
9763;SDS011;4921;43.214;27.936;2023-05-15T14:23:20;5.43;;;3.23;;
9763;SDS011;4921;43.214;27.936;2023-05-15T14:25:49;4.43;;;3.33;;
9763;SDS011;4921;43.214;27.936;2023-05-15T14:28:16;5.67;;;3.13;;
9763;SDS011;4921;43.214;27.936;2023-05-15T14:30:42;3.77;;;3.47;;
9763;SDS011;4921;43.214;27.936;2023-05-15T14:33:09;4.03;;;3.53;;
9763;SDS011;4921;43.214;27.936;2023-05-15T14:35:36;5.20;;;2.97;;
9763;SDS011;4921;43.214;27.936;2023-05-15T14:38:03;4.60;;;3.50;;
9763;SDS011;4921;43.214;27.936;2023-05-15T14:40:30;3.40;;;3.10;;
9763;SDS011;4921;43.214;27.936;2023-05-15T14:42:59;5.87;;;3.50;;
9763;SDS011;4921;43.214;27.936;2023-05-15T14:45:26;4.17;;;3.20;;
9763;SDS011;4921;43.214;27.936;2023-05-15T14:47:53;4.20;;;3.80;;
9763;SDS011;4921;43.214;27.936;2023-05-15T14:50:20;7.50;;;3.77;;
9763;SDS011;4921;43.214;27.936;2023-05-15T14:52:47;4.10;;;3.50;;
9763;SDS011;4921;43.214;27.936;2023-05-15T14:55:14;7.33;;;3.83;;
9763;SDS011;4921;43.214;27.936;2023-05-15T14:57:46;4.87;;;3.87;;
9763;SDS011;4921;43.214;27.936;2023-05-15T15:00:16;3.83;;;3.43;;
9763;SDS011;4921;43.214;27.936;2023-05-15T15:02:43;4.93;;;3.63;;
9763;SDS011;4921;43.214;27.936;2023-05-15T15:05:11;4.07;;;3.73;;
9763;SDS011;4921;43.214;27.936;2023-05-15T15:10:23;3.73;;;3.50;;
9763;SDS011;4921;43.214;27.936;2023-05-15T15:12:50;7.23;;;3.97;;
9763;SDS011;4921;43.214;27.936;2023-05-15T15:15:19;5.00;;;3.70;;
9763;SDS011;4921;43.214;27.936;2023-05-15T15:17:46;4.77;;;3.87;;
9763;SDS011;4921;43.214;27.936;2023-05-15T15:20:17;4.70;;;3.50;;